Time;durP1;ratioP1;P1;durP2;ratioP2;P2;SDS_P1;SDS_P2;PMS_P1;PMS_P2;Temp;Humidity;BMP_temperature;BMP_pressure;BME280_temperature;BME280_humidity;BME280_pressure;Samples;Min_cycle;Max_cycle;Signal;HPM_P1;HPM_P2
2022/03/30 00:46:55;;;;;;;13.02;4.82;;;;;;;8.31;84.78;93607.56;5000679;23;20064;-84
2022/03/30 00:49:21;;;;;;;12.77;5.50;;;;;;;8.35;84.54;93603.34;4980624;28;20132;-84
2022/03/30 00:51:46;;;;;;;16.80;5.90;;;;;;;8.52;81.30;93600.41;4997573;28;20046;-83
2022/03/30 00:54:12;;;;;;;15.45;5.40;;;;;;;8.51;81.45;93604.06;4968795;28;20042;-84
2022/03/30 00:56:39;;;;;;;22.45;5.90;;;;;;;8.37;89.06;93590.03;4964616;28;20057;-84
2022/03/30 00:59:05;;;;;;;17.52;5.43;;;;;;;8.26;83.96;93582.28;4969829;28;20047;-84
2022/03/30 01:01:32;;;;;;;16.42;6.13;;;;;;;8.35;83.38;93582.47;4960937;28;20363;-84
2022/03/30 01:03:57;;;;;;;15.80;5.13;;;;;;;8.40;83.66;93586.88;4961224;28;20049;-84
2022/03/30 01:06:23;;;;;;;18.00;5.03;;;;;;;8.33;86.75;93577.53;4980863;28;20042;-84
2022/03/30 01:08:48;;;;;;;21.17;5.13;;;;;;;8.34;87.19;93571.28;4992486;28;20047;-83
2022/03/30 01:11:15;;;;;;;13.85;5.35;;;;;;;8.26;87.49;93568.47;4951113;28;20043;-84
2022/03/30 01:13:40;;;;;;;19.13;6.47;;;;;;;8.20;88.73;93567.72;4966925;28;20054;-84
2022/03/30 01:16:06;;;;;;;13.02;5.18;;;;;;;8.19;91.22;93561.72;4966901;28;20051;-84
2022/03/30 01:18:41;;;;;;;20.40;5.80;;;;;;;8.10;90.60;93560.72;4967077;28;20466;-84
2022/03/30 01:21:08;;;;;;;12.35;5.18;;;;;;;8.20;90.19;93559.91;4967104;28;20045;-84
2022/03/30 01:23:34;;;;;;;9.93;5.03;;;;;;;8.24;92.47;93562.72;4966367;28;20042;-84
2022/03/30 01:26:00;;;;;;;12.25;5.35;;;;;;;8.14;95.46;93558.34;4967172;28;20047;-84
2022/03/30 01:28:28;;;;;;;16.08;5.25;;;;;;;8.29;90.88;93565.31;4966954;28;20048;-85
2022/03/30 01:33:45;;;;;;;25.08;6.32;;;;;;;8.13;91.66;93556.78;4968891;28;20407;-85
2022/03/30 01:36:11;;;;;;;15.65;5.18;;;;;;;8.09;91.71;93542.75;4966774;28;20049;-84
2022/03/30 01:38:36;;;;;;;17.52;6.30;;;;;;;8.22;92.91;93547.34;4966918;28;20046;-85
2022/03/30 01:41:02;;;;;;;18.60;4.95;;;;;;;8.14;90.81;93538.28;4984175;28;20051;-85
2022/03/30 01:43:28;;;;;;;20.60;5.28;;;;;;;8.26;95.85;93545.75;4965945;28;20050;-84
2022/03/30 01:45:54;;;;;;;19.08;5.22;;;;;;;7.86;100.00;93544.97;4966581;28;20047;-84
2022/03/30 01:48:20;;;;;;;17.00;5.53;;;;;;;8.01;99.29;93539.63;4983975;28;20050;-84
2022/03/30 01:50:45;;;;;;;23.42;5.78;;;;;;;8.04;100.00;93533.91;4966273;28;20061;-84
2022/03/30 01:53:11;;;;;;;12.02;5.35;;;;;;;8.00;96.54;93540.69;4966693;28;20042;-84
2022/03/30 01:55:36;;;;;;;9.65;4.82;;;;;;;7.95;100.00;93527.69;4983307;28;20045;-84
2022/03/30 01:58:02;;;;;;;16.45;5.50;;;;;;;8.01;98.91;93524.00;4966378;28;20101;-84
2022/03/30 02:00:27;;;;;;;18.73;5.05;;;;;;;8.08;97.18;93528.91;4983947;28;20042;-84
2022/03/30 02:02:53;;;;;;;20.10;5.65;;;;;;;8.27;96.76;93523.81;4950568;28;20082;-84
2022/03/30 02:05:18;;;;;;;18.60;5.07;;;;;;;8.36;94.72;93531.84;4965877;28;20094;-84
2022/03/30 02:07:44;;;;;;;21.92;5.55;;;;;;;8.63;92.36;93534.00;4966758;28;20097;-85
2022/03/30 02:10:10;;;;;;;23.23;5.25;;;;;;;8.62;91.57;93524.63;4983877;28;20133;-84
2022/03/30 02:12:36;;;;;;;18.58;5.07;;;;;;;8.68;90.48;93516.72;4966313;28;20485;-84
2022/03/30 02:15:03;;;;;;;15.25;4.93;;;;;;;8.96;89.20;93516.97;4966216;28;20043;-84
2022/03/30 02:17:29;;;;;;;31.42;5.88;;;;;;;8.86;94.38;93510.78;4966338;28;20436;-84
2022/03/30 02:19:55;;;;;;;22.65;5.47;;;;;;;8.87;90.48;93501.91;4962289;28;20039;-84
2022/03/30 02:22:22;;;;;;;15.05;4.75;;;;;;;8.83;91.96;93500.13;4963208;28;20039;-84
2022/03/30 02:24:50;;;;;;;29.70;6.45;;;;;;;8.85;97.21;93493.56;4980057;28;20178;-85
2022/03/30 02:27:18;;;;;;;33.67;6.43;;;;;;;9.02;91.97;93481.88;4947409;28;20039;-84
2022/03/30 02:29:45;;;;;;;19.52;6.00;;;;;;;8.97;93.72;93495.81;4947672;28;20059;-84
2022/03/30 02:32:11;;;;;;;14.70;5.07;;;;;;;8.79;97.29;93479.00;4963278;28;20447;-84
2022/03/30 02:34:36;;;;;;;22.60;6.22;;;;;;;8.58;99.52;93478.44;4962667;28;20089;-84
2022/03/30 02:37:02;;;;;;;22.13;5.18;;;;;;;8.60;100.00;93484.91;4980278;28;20043;-84
2022/03/30 02:39:28;;;;;;;29.73;5.72;;;;;;;8.69;100.00;93476.50;4980268;28;20039;-84
2022/03/30 02:41:55;;;;;;;22.83;6.13;;;;;;;8.41;100.00;93481.41;4963008;28;20451;-85
2022/03/30 02:44:21;;;;;;;31.08;5.53;;;;;;;8.61;100.00;93478.66;4962861;28;20103;-84
2022/03/30 02:46:46;;;;;;;25.67;6.07;;;;;;;8.47;100.00;93482.94;4980088;28;20035;-84
2022/03/30 02:49:12;;;;;;;26.75;5.97;;;;;;;8.21;100.00;93475.34;4980373;28;20046;-84
2022/03/30 02:51:38;;;;;;;23.23;4.95;;;;;;;8.29;100.00;93474.72;4980349;28;20428;-84
2022/03/30 02:54:04;;;;;;;28.10;6.10;;;;;;;8.28;100.00;93480.25;4962790;28;20035;-84
2022/03/30 02:56:29;;;;;;;23.55;5.90;;;;;;;8.15;100.00;93466.78;4963042;28;20042;-84
2022/03/30 02:58:55;;;;;;;19.42;5.47;;;;;;;8.13;100.00;93463.66;4980419;28;20048;-84
2022/03/30 03:01:20;;;;;;;21.60;5.10;;;;;;;7.95;100.00;93461.69;4989646;28;20140;-84
2022/03/30 03:03:46;;;;;;;29.88;5.57;;;;;;;7.94;100.00;93453.09;4966504;28;20129;-84
2022/03/30 03:06:12;;;;;;;16.52;5.00;;;;;;;8.07;100.00;93451.69;4989699;28;20451;-84
2022/03/30 03:08:38;;;;;;;20.95;4.85;;;;;;;8.12;100.00;93454.28;4992696;28;20447;-84
2022/03/30 03:11:03;;;;;;;20.55;5.10;;;;;;;8.18;100.00;93447.94;4962403;28;20045;-84
2022/03/30 03:13:29;;;;;;;23.77;5.55;;;;;;;8.00;100.00;93448.63;4961896;28;20039;-84
2022/03/30 03:15:54;;;;;;;26.42;5.82;;;;;;;7.81;100.00;93449.28;4962590;28;20053;-84
2022/03/30 03:18:20;;;;;;;19.58;5.32;;;;;;;7.63;100.00;93450.72;4979540;28;20125;-84
2022/03/30 03:20:47;;;;;;;26.48;5.20;;;;;;;7.78;100.00;93453.22;4962566;28;20048;-84
2022/03/30 03:23:13;;;;;;;22.90;5.32;;;;;;;7.85;100.00;93446.91;4962429;28;20043;-84
2022/03/30 03:25:40;;;;;;;29.13;4.95;;;;;;;7.68;100.00;93439.47;4945944;28;20097;-84
2022/03/30 03:28:06;;;;;;;14.52;4.28;;;;;;;7.93;100.00;93449.69;4962557;28;20034;-84
2022/03/30 03:30:31;;;;;;;15.13;4.78;;;;;;;7.91;100.00;93451.06;4961956;28;20041;-84
2022/03/30 03:32:57;;;;;;;31.33;5.22;;;;;;;7.86;100.00;93448.47;4962057;28;20050;-84
2022/03/30 03:35:23;;;;;;;21.17;4.95;;;;;;;7.77;100.00;93433.41;4961939;28;20439;-84
2022/03/30 03:37:48;;;;;;;29.33;5.78;;;;;;;7.50;100.00;93439.06;4946105;28;20467;-84
2022/03/30 03:40:14;;;;;;;23.92;6.53;;;;;;;7.60;100.00;93433.78;4961955;28;20045;-84
2022/03/30 03:42:42;;;;;;;25.65;4.88;;;;;;;7.83;100.00;93443.78;4962119;28;20475;-84
2022/03/30 03:45:08;;;;;;;20.40;5.47;;;;;;;7.95;100.00;93436.41;4961610;28;20415;-84
2022/03/30 03:47:34;;;;;;;19.58;4.82;;;;;;;8.03;100.00;93427.22;4979013;28;20125;-84
2022/03/30 03:50:00;;;;;;;21.48;4.38;;;;;;;7.93;100.00;93433.28;4961964;28;20383;-84
2022/03/30 03:52:25;;;;;;;18.10;5.25;;;;;;;7.92;100.00;93429.91;4961866;28;20061;-84
2022/03/30 03:54:51;;;;;;;21.55;6.10;;;;;;;7.92;100.00;93434.34;4961225;28;20145;-84
2022/03/30 03:57:16;;;;;;;19.65;5.63;;;;;;;7.72;100.00;93428.22;4964956;28;20137;-84
2022/03/30 03:59:44;;;;;;;25.02;5.78;;;;;;;7.40;100.00;93428.72;4961520;28;20109;-84
2022/03/30 04:02:09;;;;;;;31.55;5.90;;;;;;;7.62;100.00;93423.09;4945497;28;20121;-84
2022/03/30 04:04:37;;;;;;;25.70;5.25;;;;;;;7.71;100.00;93426.66;4961259;28;20054;-84
2022/03/30 04:07:03;;;;;;;24.65;5.75;;;;;;;7.77;100.00;93425.59;4961891;28;20046;-84
2022/03/30 04:09:28;;;;;;;20.83;5.13;;;;;;;7.77;100.00;93417.75;4961652;28;20054;-84
2022/03/30 04:11:54;;;;;;;25.38;5.63;;;;;;;7.71;100.00;93426.66;4978393;28;20055;-84
2022/03/30 04:14:19;;;;;;;29.23;5.57;;;;;;;7.84;100.00;93430.50;4967639;28;20046;-84
2022/03/30 04:16:46;;;;;;;20.92;4.88;;;;;;;7.81;100.00;93431.00;4980824;28;20050;-84
2022/03/30 04:19:12;;;;;;;26.27;4.95;;;;;;;7.92;100.00;93429.13;4980421;28;20100;-84
2022/03/30 04:21:37;;;;;;;23.63;5.38;;;;;;;7.67;100.00;93430.88;4980526;28;20050;-84
2022/03/30 04:24:03;;;;;;;34.85;6.32;;;;;;;7.60;100.00;93431.19;4979722;28;20049;-84
2022/03/30 04:26:29;;;;;;;28.17;6.60;;;;;;;7.42;100.00;93429.97;4980264;28;20490;-84
2022/03/30 04:28:54;;;;;;;31.67;7.07;;;;;;;7.52;100.00;93423.91;4980697;28;20109;-86
2022/03/30 04:31:23;;;;;;;39.33;5.70;;;;;;;7.72;100.00;93430.81;4980287;28;20053;-86
2022/03/30 04:33:48;;;;;;;28.70;5.15;;;;;;;7.58;100.00;93429.88;4979978;28;20431;-86
2022/03/30 04:36:14;;;;;;;29.20;5.68;;;;;;;7.71;100.00;93431.88;4980450;28;20096;-86
2022/03/30 04:38:39;;;;;;;40.92;6.32;;;;;;;7.70;100.00;93430.31;4980540;28;20054;-87
2022/03/30 04:41:05;;;;;;;34.08;5.95;;;;;;;7.62;100.00;93431.69;4964163;28;20101;-86
2022/03/30 04:43:31;;;;;;;31.95;5.65;;;;;;;7.51;100.00;93435.38;4997146;28;20096;-86
2022/03/30 04:45:56;;;;;;;21.58;5.70;;;;;;;7.54;100.00;93437.47;4997756;28;20046;-86
2022/03/30 04:48:22;;;;;;;28.98;5.72;;;;;;;7.52;100.00;93434.34;4964197;28;20088;-86
2022/03/30 04:50:49;;;;;;;24.42;5.97;;;;;;;7.59;100.00;93432.22;4997693;28;20046;-86
2022/03/30 04:53:15;;;;;;;28.58;6.20;;;;;;;7.78;100.00;93431.56;4980307;28;20044;-87
2022/03/30 04:55:40;;;;;;;32.55;6.40;;;;;;;7.78;100.00;93429.75;4963938;28;20044;-85
2022/03/30 04:58:06;;;;;;;30.67;5.72;;;;;;;7.72;100.00;93427.44;4997568;28;20355;-86
2022/03/30 05:00:32;;;;;;;30.77;5.90;;;;;;;7.63;100.00;93419.44;4979813;28;20046;-85
2022/03/30 05:02:58;;;;;;;28.45;6.30;;;;;;;7.34;100.00;93420.91;4997551;28;20101;-86
2022/03/30 05:05:27;;;;;;;46.65;5.50;;;;;;;7.33;100.00;93423.78;4966127;28;20042;-86
2022/03/30 05:07:53;;;;;;;27.30;5.78;;;;;;;7.37;100.00;93424.81;4974062;28;20101;-86
2022/03/30 05:10:18;;;;;;;29.90;5.72;;;;;;;7.41;100.00;93422.44;4959573;28;20038;-86
2022/03/30 05:12:43;;;;;;;23.83;5.55;;;;;;;7.66;100.00;93418.88;4978010;28;20098;-85
2022/03/30 05:15:10;;;;;;;19.08;5.40;;;;;;;7.58;100.00;93417.63;4960130;28;20550;-85
2022/03/30 05:17:41;;;;;;;21.90;5.30;;;;;;;7.45;100.00;93420.84;4960501;28;20068;-85
2022/03/30 05:20:07;;;;;;;33.47;5.65;;;;;;;7.42;100.00;93422.16;4960370;28;20436;-85
2022/03/30 05:22:36;;;;;;;25.45;4.90;;;;;;;7.52;100.00;93423.16;4960681;28;20078;-85
2022/03/30 05:25:01;;;;;;;34.50;5.40;;;;;;;7.44;100.00;93422.66;4960500;28;20070;-86
2022/03/30 05:27:27;;;;;;;33.40;5.95;;;;;;;7.82;100.00;93426.59;4960359;28;20077;-85
2022/03/30 05:29:52;;;;;;;33.70;6.55;;;;;;;7.63;100.00;93424.66;4960467;28;20062;-85
2022/03/30 05:32:18;;;;;;;18.95;6.60;;;;;;;7.63;100.00;93427.25;4960371;28;20062;-85
2022/03/30 05:34:43;;;;;;;32.55;5.88;;;;;;;7.58;100.00;93422.84;4960215;28;20039;-85
2022/03/30 05:37:10;;;;;;;38.45;6.93;;;;;;;7.61;100.00;93419.69;4960638;28;20104;-85
2022/03/30 05:39:39;;;;;;;36.10;7.95;;;;;;;7.88;100.00;93421.06;4960545;28;20427;-85
2022/03/30 05:42:05;;;;;;;35.15;7.32;;;;;;;7.89;100.00;93419.22;4977990;28;20069;-85
2022/03/30 05:44:31;;;;;;;30.23;6.22;;;;;;;8.07;100.00;93421.19;4959965;28;20047;-85
2022/03/30 05:46:57;;;;;;;32.80;6.60;;;;;;;7.98;100.00;93428.03;4960391;28;20051;-85
2022/03/30 05:49:24;;;;;;;30.77;5.97;;;;;;;7.85;100.00;93421.63;4977374;28;20507;-85
2022/03/30 05:51:50;;;;;;;37.85;6.93;;;;;;;8.18;100.00;93413.28;4977621;28;20046;-85
2022/03/30 05:54:15;;;;;;;32.83;6.82;;;;;;;8.26;100.00;93417.88;4961901;28;20114;-85
2022/03/30 05:59:25;;;;;;;27.13;7.38;;;;;;;8.26;100.00;93415.25;4981036;28;20082;-85
2022/03/30 06:01:50;;;;;;;38.75;7.65;;;;;;;8.05;100.00;93423.28;4981257;28;20060;-85
2022/03/30 06:04:16;;;;;;;37.35;6.82;;;;;;;8.33;100.00;93423.56;4980324;28;20043;-85
2022/03/30 06:06:41;;;;;;;38.55;6.72;;;;;;;8.41;100.00;93429.22;4963892;28;20070;-85
2022/03/30 06:09:09;;;;;;;32.45;7.30;;;;;;;8.55;100.00;93427.53;4981090;28;20073;-85
2022/03/30 06:11:35;;;;;;;30.85;7.43;;;;;;;8.48;100.00;93416.63;4980993;28;20129;-85
2022/03/30 06:14:00;;;;;;;29.02;6.80;;;;;;;8.65;100.00;93418.06;4980555;28;20479;-85
2022/03/30 06:16:26;;;;;;;43.40;7.45;;;;;;;8.59;100.00;93423.31;4963668;28;20121;-85
2022/03/30 06:18:52;;;;;;;39.63;7.80;;;;;;;8.50;100.00;93425.00;4963416;28;20105;-85
2022/03/30 06:21:18;;;;;;;31.20;7.63;;;;;;;8.47;100.00;93425.53;4963674;28;20451;-85
2022/03/30 06:23:43;;;;;;;38.17;8.05;;;;;;;8.46;100.00;93421.31;4962699;28;20074;-85
2022/03/30 06:26:09;;;;;;;36.25;7.95;;;;;;;8.60;100.00;93427.47;4963493;28;20077;-85
2022/03/30 06:28:34;;;;;;;41.17;7.03;;;;;;;8.34;100.00;93419.91;4963297;28;20050;-85
2022/03/30 06:31:00;;;;;;;30.17;7.00;;;;;;;8.44;100.00;93423.44;4980738;28;20061;-85
2022/03/30 06:33:26;;;;;;;39.45;8.02;;;;;;;8.43;100.00;93421.88;4962978;28;20050;-85
2022/03/30 06:35:51;;;;;;;35.33;8.07;;;;;;;8.39;100.00;93426.09;4980281;28;20039;-85
2022/03/30 06:38:17;;;;;;;30.20;7.25;;;;;;;8.34;100.00;93412.06;4980342;28;20050;-85
2022/03/30 06:40:47;;;;;;;34.83;7.95;;;;;;;8.35;100.00;93408.41;4946941;28;20039;-85
2022/03/30 06:43:15;;;;;;;38.05;7.15;;;;;;;8.44;100.00;93413.00;4963881;28;20062;-85
2022/03/30 06:45:41;;;;;;;25.48;6.43;;;;;;;8.79;100.00;93407.69;4962514;28;20043;-85
2022/03/30 06:48:07;;;;;;;24.38;6.80;;;;;;;8.78;100.00;93406.94;4980371;28;20050;-85
2022/03/30 06:50:33;;;;;;;42.08;7.10;;;;;;;8.87;100.00;93394.03;4980376;28;20047;-85
2022/03/30 06:53:02;;;;;;;33.47;6.57;;;;;;;9.12;100.00;93398.16;4963007;28;20039;-85
2022/03/30 06:55:29;;;;;;;32.13;6.80;;;;;;;8.96;100.00;93394.19;4962816;28;20039;-85
2022/03/30 06:57:54;;;;;;;30.25;7.57;;;;;;;8.74;100.00;93405.91;4980207;28;20093;-84
2022/03/30 07:00:19;;;;;;;28.48;7.45;;;;;;;8.44;100.00;93410.38;4980109;28;20443;-85
2022/03/30 07:02:45;;;;;;;33.33;6.72;;;;;;;8.53;100.00;93402.75;4962649;28;20043;-85
2022/03/30 07:05:11;;;;;;;37.03;7.65;;;;;;;8.41;100.00;93387.47;4961621;28;20035;-85
2022/03/30 07:10:23;;;;;;;28.88;6.70;;;;;;;9.09;100.00;93395.31;4965075;28;20041;-85
2022/03/30 07:12:51;;;;;;;40.08;6.75;;;;;;;9.27;100.00;93386.72;4962764;28;20050;-85
2022/03/30 07:15:19;;;;;;;25.88;6.25;;;;;;;9.56;100.00;93385.00;4961965;28;20042;-85
2022/03/30 07:17:49;;;;;;;23.95;5.93;;;;;;;9.56;100.00;93377.97;4962628;28;20449;-85
2022/03/30 07:20:15;;;;;;;29.17;6.50;;;;;;;9.27;100.00;93383.31;4962558;28;20503;-85
2022/03/30 07:22:42;;;;;;;35.50;6.80;;;;;;;9.43;100.00;93389.13;4962546;28;20038;-85
2022/03/30 07:25:09;;;;;;;43.42;6.63;;;;;;;9.67;100.00;93380.41;4978973;28;20061;-85
2022/03/30 07:27:37;;;;;;;26.95;6.65;;;;;;;9.68;100.00;93389.78;4962480;28;20042;-85
2022/03/30 07:30:04;;;;;;;34.10;6.40;;;;;;;9.77;100.00;93388.09;4962155;28;20054;-85
2022/03/30 07:32:30;;;;;;;31.15;6.25;;;;;;;10.19;100.00;93390.84;4946278;28;20055;-85
2022/03/30 07:34:55;;;;;;;29.77;6.75;;;;;;;10.21;100.00;93393.94;4961483;28;20136;-85
2022/03/30 07:37:20;;;;;;;28.33;6.93;;;;;;;10.08;100.00;93394.69;4979480;28;20046;-85
2022/03/30 07:39:46;;;;;;;25.77;6.40;;;;;;;9.78;100.00;93391.50;4961961;28;20356;-85
2022/03/30 07:42:12;;;;;;;35.03;7.15;;;;;;;9.60;100.00;93394.63;4979415;28;20038;-85
2022/03/30 07:44:37;;;;;;;40.65;6.97;;;;;;;10.28;100.00;93393.56;4945502;28;20049;-85
2022/03/30 07:47:04;;;;;;;32.03;6.38;;;;;;;10.03;100.00;93388.44;4961606;28;20047;-85
2022/03/30 07:49:30;;;;;;;37.38;6.88;;;;;;;10.15;100.00;93389.84;4979277;28;20070;-85
2022/03/30 07:51:56;;;;;;;30.95;5.78;;;;;;;9.92;100.00;93387.09;4979224;28;20046;-85
2022/03/30 07:54:21;;;;;;;31.25;6.78;;;;;;;10.53;100.00;93383.69;4961494;28;20459;-85
2022/03/30 07:56:46;;;;;;;29.38;5.68;;;;;;;10.60;100.00;93390.09;4979091;28;20046;-85
2022/03/30 07:59:13;;;;;;;22.45;6.20;;;;;;;10.32;100.00;93382.19;4978956;28;20047;-85
2022/03/30 08:01:40;;;;;;;23.40;6.13;;;;;;;10.39;100.00;93383.69;4961961;28;20093;-85
2022/03/30 08:04:05;;;;;;;27.75;5.88;;;;;;;10.52;100.00;93392.63;4961231;28;20066;-85
2022/03/30 08:06:31;;;;;;;37.28;6.65;;;;;;;10.78;100.00;93386.91;4961168;28;20046;-85
2022/03/30 08:08:56;;;;;;;23.40;6.35;;;;;;;10.91;100.00;93386.13;4961613;28;20352;-85
2022/03/30 08:11:22;;;;;;;31.45;7.00;;;;;;;10.83;100.00;93387.59;4961685;28;20050;-85
2022/03/30 08:13:47;;;;;;;37.92;7.00;;;;;;;10.75;100.00;93388.25;4960972;28;20534;-85
2022/03/30 08:16:13;;;;;;;38.25;6.97;;;;;;;10.33;100.00;93390.84;4978337;28;20066;-85
2022/03/30 08:18:38;;;;;;;48.25;7.85;;;;;;;10.12;100.00;93391.22;4961578;28;20122;-85
2022/03/30 08:23:48;;;;;;;33.03;7.20;;;;;;;10.04;100.00;93384.78;4963279;28;20050;-85
2022/03/30 08:26:13;;;;;;;29.20;6.80;;;;;;;10.22;100.00;93387.63;4978372;28;20039;-85
2022/03/30 08:28:39;;;;;;;30.23;6.90;;;;;;;10.46;100.00;93379.63;4961107;28;20114;-85
2022/03/30 08:31:04;;;;;;;32.58;8.18;;;;;;;10.58;100.00;93386.25;4961048;28;20050;-85
2022/03/30 08:33:30;;;;;;;35.15;7.32;;;;;;;10.18;100.00;93379.56;4977816;28;20042;-85
2022/03/30 08:35:56;;;;;;;25.10;6.78;;;;;;;10.36;100.00;93379.03;4944771;28;20039;-85
2022/03/30 08:38:22;;;;;;;25.40;6.00;;;;;;;10.85;100.00;93384.69;4961216;28;20428;-85
2022/03/30 08:40:47;;;;;;;33.90;6.68;;;;;;;10.95;100.00;93381.09;4960913;28;20043;-85
2022/03/30 08:43:12;;;;;;;27.58;6.25;;;;;;;11.24;100.00;93385.97;4961445;28;20422;-85
2022/03/30 08:45:38;;;;;;;31.05;5.60;;;;;;;11.38;100.00;93382.53;4960215;28;20337;-85
2022/03/30 08:48:07;;;;;;;23.98;6.10;;;;;;;10.88;100.00;93381.47;4960665;28;20061;-85
2022/03/30 08:50:33;;;;;;;30.85;6.25;;;;;;;11.24;100.00;93380.72;4961133;28;20055;-85
2022/03/30 08:53:02;;;;;;;26.85;6.40;;;;;;;11.33;100.00;93380.78;4960695;28;20444;-85
2022/03/30 08:55:28;;;;;;;24.33;5.97;;;;;;;11.33;100.00;93386.03;4960357;28;20050;-85
2022/03/30 08:57:54;;;;;;;19.80;5.88;;;;;;;10.99;100.00;93379.41;4977857;28;20042;-85
2022/03/30 09:00:20;;;;;;;30.13;6.07;;;;;;;11.32;100.00;93381.88;4977877;28;20038;-85
2022/03/30 09:02:50;;;;;;;25.20;5.72;;;;;;;11.44;100.00;93379.50;4960696;28;20047;-85
2022/03/30 09:05:21;;;;;;;30.88;5.90;;;;;;;10.92;100.00;93374.56;4960678;28;20053;-85
2022/03/30 09:07:57;;;;;;;22.85;5.22;;;;;;;10.23;100.00;93383.94;4960597;28;20337;-85
2022/03/30 09:10:24;;;;;;;22.33;5.40;;;;;;;10.77;100.00;93373.06;4960487;28;20351;-85
2022/03/30 09:12:54;;;;;;;25.35;5.63;;;;;;;10.74;100.00;93373.59;4944756;28;20406;-85
2022/03/30 09:15:20;;;;;;;25.27;5.90;;;;;;;10.73;100.00;93377.31;4960150;28;20035;-85
2022/03/30 09:17:47;;;;;;;26.27;5.13;;;;;;;10.97;100.00;93381.56;4977746;28;20045;-85
2022/03/30 09:20:19;;;;;;;21.98;5.35;;;;;;;10.96;100.00;93374.78;4944697;28;20066;-85
2022/03/30 09:22:47;;;;;;;20.40;5.00;;;;;;;11.09;100.00;93381.03;4960672;28;20066;-85
2022/03/30 09:25:14;;;;;;;21.65;5.10;;;;;;;11.06;100.00;93371.16;4960225;28;20047;-85
2022/03/30 09:27:42;;;;;;;28.73;5.80;;;;;;;11.25;100.00;93382.28;4961468;28;20214;-85
2022/03/30 09:30:09;;;;;;;20.63;5.63;;;;;;;11.32;100.00;93369.53;4964354;28;20403;-85
2022/03/30 09:32:36;;;;;;;34.45;5.93;;;;;;;11.31;100.00;93375.06;4948387;28;20039;-85
2022/03/30 09:35:02;;;;;;;31.63;5.90;;;;;;;11.36;100.00;93369.72;4963974;28;20046;-85
2022/03/30 09:37:27;;;;;;;27.05;5.88;;;;;;;11.52;100.00;93366.75;4948080;28;20050;-85
2022/03/30 09:39:53;;;;;;;18.88;5.78;;;;;;;11.61;100.00;93367.59;4964161;28;20364;-85
2022/03/30 09:42:18;;;;;;;24.80;5.95;;;;;;;11.34;100.00;93369.25;4964328;28;20046;-84
2022/03/30 09:44:54;;;;;;;19.75;5.93;;;;;;;11.09;100.00;93362.69;4963505;28;20457;-85
2022/03/30 09:47:21;;;;;;;19.30;6.15;;;;;;;11.32;100.00;93364.31;4964023;28;20102;-85
2022/03/30 09:49:48;;;;;;;25.27;6.25;;;;;;;11.25;100.00;93361.28;4964229;28;20352;-85
2022/03/30 09:52:25;;;;;;;21.45;6.13;;;;;;;11.43;100.00;93359.59;4948061;28;20093;-85
2022/03/30 09:54:57;;;;;;;20.98;5.93;;;;;;;11.09;100.00;93355.63;4963418;28;20049;-85
2022/03/30 09:57:37;;;;;;;24.60;6.78;;;;;;;9.68;100.00;93348.75;4964268;28;20051;-84
2022/03/30 10:00:14;;;;;;;23.98;7.13;;;;;;;9.11;100.00;93352.19;4964084;28;20137;-85
2022/03/30 10:02:47;;;;;;;27.52;6.97;;;;;;;8.91;100.00;93340.97;4964237;28;20379;-84
2022/03/30 10:05:15;;;;;;;33.35;6.38;;;;;;;9.40;100.00;93340.78;4980685;28;20046;-84
2022/03/30 10:07:41;;;;;;;30.45;7.15;;;;;;;9.76;100.00;93340.25;4963699;28;20137;-84
2022/03/30 10:10:09;;;;;;;31.70;5.45;;;;;;;10.13;100.00;93337.00;4963856;28;20142;-84
2022/03/30 10:12:34;;;;;;;24.95;5.53;;;;;;;9.76;100.00;93332.41;4963844;28;20049;-84
2022/03/30 10:15:00;;;;;;;23.08;5.30;;;;;;;9.22;100.00;93328.53;4963347;28;20042;-84
2022/03/30 10:17:28;;;;;;;20.02;6.18;;;;;;;9.55;100.00;93328.53;4963638;28;20357;-84
2022/03/30 10:19:57;;;;;;;25.70;5.95;;;;;;;9.83;100.00;93326.00;4963677;28;20038;-84
2022/03/30 10:22:34;;;;;;;27.35;5.70;;;;;;;9.91;100.00;93314.91;4963482;28;20045;-84
2022/03/30 10:25:33;;;;;;;23.23;5.20;;;;;;;10.43;100.00;93320.00;4962947;28;20043;-85
2022/03/30 10:28:14;;;;;;;16.85;5.07;;;;;;;10.81;100.00;93313.75;4963229;28;20039;-84
2022/03/30 10:30:43;;;;;;;18.23;4.63;;;;;;;10.73;100.00;93307.34;4963552;28;20072;-84
2022/03/30 10:33:10;;;;;;;30.80;4.72;;;;;;;9.74;100.00;93303.13;4963608;28;20039;-85
2022/03/30 10:35:42;;;;;;;18.95;3.92;;;;;;;10.52;100.00;93306.19;4962734;28;20041;-85
2022/03/30 10:38:08;;;;;;;19.58;4.15;;;;;;;10.16;100.00;93294.53;4947246;28;20043;-84
2022/03/30 10:40:39;;;;;;;14.50;3.92;;;;;;;10.58;100.00;93292.72;4946501;28;21281;-85
2022/03/30 10:43:06;;;;;;;19.13;3.45;;;;;;;10.91;100.00;93293.66;4968890;28;20403;-85
2022/03/30 10:45:38;;;;;;;16.27;3.83;;;;;;;10.44;100.00;93289.34;4969927;28;20360;-86
2022/03/30 10:48:19;;;;;;;20.15;4.20;;;;;;;9.97;100.00;93282.31;4946714;28;20134;-86
2022/03/30 10:50:48;;;;;;;14.35;3.00;;;;;;;10.57;100.00;93283.31;4980083;28;20435;-86
2022/03/30 10:53:35;;;;;;;18.45;3.10;;;;;;;9.22;100.00;93278.88;4962832;28;20039;-86
2022/03/30 10:56:09;;;;;;;23.70;3.85;;;;;;;9.44;100.00;93267.81;4980268;28;20058;-85
2022/03/30 10:58:35;;;;;;;16.35;3.35;;;;;;;10.02;100.00;93266.53;4962871;28;20042;-85
2022/03/30 11:01:25;;;;;;;12.25;3.08;;;;;;;9.72;100.00;93266.00;4962789;28;20057;-85
2022/03/30 11:03:58;;;;;;;16.42;2.60;;;;;;;9.42;100.00;93256.88;4962752;28;20061;-85
2022/03/30 11:06:24;;;;;;;13.95;2.88;;;;;;;9.41;100.00;93257.94;4962547;28;20444;-85
2022/03/30 11:08:51;;;;;;;20.50;3.53;;;;;;;9.23;100.00;93249.81;4962857;28;20045;-85
2022/03/30 11:11:34;;;;;;;19.50;3.20;;;;;;;9.00;100.00;93251.47;4979664;28;20035;-85
2022/03/30 11:14:28;;;;;;;17.38;3.22;;;;;;;8.84;100.00;93246.47;4962726;28;20045;-85
2022/03/30 11:17:01;;;;;;;13.02;3.60;;;;;;;9.07;100.00;93241.47;4979969;28;20054;-85
2022/03/30 11:19:47;;;;;;;14.47;3.33;;;;;;;9.23;100.00;93236.75;4961484;28;20045;-85
2022/03/30 11:22:25;;;;;;;11.23;3.20;;;;;;;9.76;100.00;93240.84;4969522;28;20300;-85
2022/03/30 11:25:10;;;;;;;19.90;3.05;;;;;;;10.82;100.00;93241.13;4961771;28;20043;-85
2022/03/30 11:27:37;;;;;;;11.43;3.20;;;;;;;11.50;100.00;93235.16;4962182;28;20038;-85
2022/03/30 11:30:09;;;;;;;18.67;3.25;;;;;;;11.37;100.00;93236.75;4962347;28;20448;-85
2022/03/30 11:32:55;;;;;;;16.40;3.33;;;;;;;12.56;100.00;93229.19;4979324;28;20041;-85
2022/03/30 11:35:24;;;;;;;22.40;3.95;;;;;;;12.11;100.00;93230.16;4961624;28;20031;-85
2022/03/30 11:38:01;;;;;;;26.48;3.55;;;;;;;12.36;100.00;93219.28;4962420;28;20042;-85
2022/03/30 11:40:26;;;;;;;22.27;2.78;;;;;;;12.78;100.00;93216.22;4961882;28;20046;-85
2022/03/30 11:42:56;;;;;;;13.32;2.85;;;;;;;13.09;100.00;93217.91;4962156;28;20039;-84
2022/03/30 11:45:24;;;;;;;12.70;2.53;;;;;;;12.75;100.00;93211.59;4945627;28;20046;-84
2022/03/30 11:47:54;;;;;;;15.20;2.85;;;;;;;12.73;100.00;93210.06;4962186;28;20436;-85
2022/03/30 11:50:47;;;;;;;17.85;2.95;;;;;;;13.36;100.00;93208.91;4946184;28;20034;-85
2022/03/30 11:53:14;;;;;;;29.50;4.40;;;;;;;13.23;100.00;93208.00;4958905;28;20046;-85
2022/03/30 11:55:49;;;;;;;27.98;4.63;;;;;;;13.07;100.00;93207.72;4961258;28;20310;-85
2022/03/30 11:58:26;;;;;;;34.47;4.60;;;;;;;12.85;100.00;93203.41;4978828;28;20035;-85
2022/03/30 12:00:52;;;;;;;31.50;4.13;;;;;;;13.30;100.00;93194.38;4962155;28;20041;-85
2022/03/30 12:03:18;;;;;;;42.55;5.22;;;;;;;12.62;100.00;93189.63;4961644;28;20031;-85
2022/03/30 12:05:43;;;;;;;25.73;4.47;;;;;;;12.85;100.00;93185.00;4960954;28;20057;-84
2022/03/30 12:08:09;;;;;;;43.63;5.55;;;;;;;12.26;100.00;93173.84;4961429;28;20035;-85
2022/03/30 12:10:34;;;;;;;47.25;6.07;;;;;;;12.64;100.00;93172.47;4961639;28;20039;-85
2022/03/30 12:13:00;;;;;;;34.78;5.30;;;;;;;12.91;100.00;93172.47;4961652;28;20043;-85
2022/03/30 12:15:26;;;;;;;54.17;6.47;;;;;;;11.62;100.00;93163.75;4961175;28;20375;-85
2022/03/30 12:17:59;;;;;;;34.15;5.70;;;;;;;11.44;100.00;93168.94;4961929;28;20062;-84
2022/03/30 12:20:28;;;;;;;41.17;5.35;;;;;;;11.64;100.00;93166.84;4978750;28;20042;-85
2022/03/30 12:22:58;;;;;;;34.95;5.60;;;;;;;11.81;100.00;93166.91;4961225;28;20039;-85